sensor_id;sensor_type;location;lat;lon;timestamp;pressure;altitude;pressure_sealevel;temperature;humidity
72038;BME280;59900;50.788;12.904;2023-03-14T00:00:12;95447.75;;;10.45;96.26
72038;BME280;59900;50.788;12.904;2023-03-14T00:02:38;95443.53;;;10.44;95.93
72038;BME280;59900;50.788;12.904;2023-03-14T00:05:04;95430.66;;;10.42;96.19
72038;BME280;59900;50.788;12.904;2023-03-14T00:07:33;95419.38;;;10.42;96.19
72038;BME280;59900;50.788;12.904;2023-03-14T00:10:01;95420.63;;;10.39;95.29
72038;BME280;59900;50.788;12.904;2023-03-14T00:12:27;95412.75;;;10.39;95.46
72038;BME280;59900;50.788;12.904;2023-03-14T00:14:52;95425.59;;;10.36;95.02
72038;BME280;59900;50.788;12.904;2023-03-14T00:17:17;95423.22;;;10.34;95.57
72038;BME280;59900;50.788;12.904;2023-03-14T00:19:43;95426.63;;;10.35;93.50
72038;BME280;59900;50.788;12.904;2023-03-14T00:22:08;95429.25;;;10.35;92.92
72038;BME280;59900;50.788;12.904;2023-03-14T00:24:33;95432.19;;;10.38;92.02
72038;BME280;59900;50.788;12.904;2023-03-14T00:26:58;95426.16;;;10.38;91.21
72038;BME280;59900;50.788;12.904;2023-03-14T00:29:24;95424.63;;;10.42;91.17
72038;BME280;59900;50.788;12.904;2023-03-14T00:31:49;95444.56;;;10.43;90.85
72038;BME280;59900;50.788;12.904;2023-03-14T00:34:14;95447.19;;;10.43;90.31
72038;BME280;59900;50.788;12.904;2023-03-14T00:36:40;95446.97;;;10.44;90.30
72038;BME280;59900;50.788;12.904;2023-03-14T00:39:05;95461.44;;;10.47;89.90
72038;BME280;59900;50.788;12.904;2023-03-14T00:41:30;95474.88;;;10.50;88.71
72038;BME280;59900;50.788;12.904;2023-03-14T00:43:55;95478.03;;;10.52;88.74
72038;BME280;59900;50.788;12.904;2023-03-14T00:46:21;95490.13;;;10.53;88.84
72038;BME280;59900;50.788;12.904;2023-03-14T00:48:46;95501.41;;;10.54;88.25
72038;BME280;59900;50.788;12.904;2023-03-14T00:51:12;95504.59;;;10.56;87.91
72038;BME280;59900;50.788;12.904;2023-03-14T00:53:42;95497.75;;;10.55;87.49
72038;BME280;59900;50.788;12.904;2023-03-14T00:56:10;95482.00;;;10.55;87.47
72038;BME280;59900;50.788;12.904;2023-03-14T00:58:36;95480.41;;;10.54;87.75
72038;BME280;59900;50.788;12.904;2023-03-14T01:01:15;95482.50;;;10.52;87.83
72038;BME280;59900;50.788;12.904;2023-03-14T01:03:41;95477.72;;;10.49;87.66
72038;BME280;59900;50.788;12.904;2023-03-14T01:06:15;95475.53;;;10.41;88.08
72038;BME280;59900;50.788;12.904;2023-03-14T01:08:41;95501.00;;;10.40;89.12
72038;BME280;59900;50.788;12.904;2023-03-14T01:11:13;95502.28;;;10.38;88.71
72038;BME280;59900;50.788;12.904;2023-03-14T01:13:39;95512.47;;;10.34;88.41
72038;BME280;59900;50.788;12.904;2023-03-14T01:16:05;95515.63;;;10.36;88.99
72038;BME280;59900;50.788;12.904;2023-03-14T01:18:32;95521.94;;;10.35;89.71
72038;BME280;59900;50.788;12.904;2023-03-14T01:20:58;95520.59;;;10.33;88.49
72038;BME280;59900;50.788;12.904;2023-03-14T01:23:23;95511.66;;;10.34;88.75
72038;BME280;59900;50.788;12.904;2023-03-14T01:25:48;95511.66;;;10.34;88.15
72038;BME280;59900;50.788;12.904;2023-03-14T01:28:14;95512.47;;;10.34;88.04
72038;BME280;59900;50.788;12.904;2023-03-14T01:30:39;95499.88;;;10.36;87.67
72038;BME280;59900;50.788;12.904;2023-03-14T01:33:04;95516.69;;;10.35;87.98
72038;BME280;59900;50.788;12.904;2023-03-14T01:35:29;95506.19;;;10.35;87.58
72038;BME280;59900;50.788;12.904;2023-03-14T01:37:55;95497.25;;;10.36;86.36
72038;BME280;59900;50.788;12.904;2023-03-14T01:40:20;95500.47;;;10.38;86.19
72038;BME280;59900;50.788;12.904;2023-03-14T01:42:53;95498.13;;;10.42;87.13
72038;BME280;59900;50.788;12.904;2023-03-14T01:48:21;95505.44;;;10.40;87.44
72038;BME280;59900;50.788;12.904;2023-03-14T01:50:47;95488.63;;;10.36;86.14
72038;BME280;59900;50.788;12.904;2023-03-14T01:53:13;95490.81;;;10.44;84.43
72038;BME280;59900;50.788;12.904;2023-03-14T01:55:38;95504.47;;;10.46;85.34
72038;BME280;59900;50.788;12.904;2023-03-14T01:58:04;95489.81;;;10.50;84.06
72038;BME280;59900;50.788;12.904;2023-03-14T02:00:30;95486.94;;;10.51;83.97
72038;BME280;59900;50.788;12.904;2023-03-14T02:03:02;95490.13;;;10.53;82.40
72038;BME280;59900;50.788;12.904;2023-03-14T02:05:32;95466.56;;;10.58;82.21
72038;BME280;59900;50.788;12.904;2023-03-14T02:08:01;95468.16;;;10.59;81.60
72038;BME280;59900;50.788;12.904;2023-03-14T02:10:29;95474.78;;;10.67;81.14
72038;BME280;59900;50.788;12.904;2023-03-14T02:12:56;95464.03;;;10.68;81.30
72038;BME280;59900;50.788;12.904;2023-03-14T02:15:23;95476.38;;;10.68;80.74
72038;BME280;59900;50.788;12.904;2023-03-14T02:17:49;95449.84;;;10.69;79.92
72038;BME280;59900;50.788;12.904;2023-03-14T02:22:50;95433.88;;;10.71;79.69
72038;BME280;59900;50.788;12.904;2023-03-14T02:25:42;95433.28;;;10.69;79.87
72038;BME280;59900;50.788;12.904;2023-03-14T02:28:09;95421.44;;;10.66;80.03
72038;BME280;59900;50.788;12.904;2023-03-14T02:30:35;95444.28;;;10.66;79.62
72038;BME280;59900;50.788;12.904;2023-03-14T02:33:17;95434.06;;;10.64;80.49
72038;BME280;59900;50.788;12.904;2023-03-14T02:35:47;95440.81;;;10.60;79.40
72038;BME280;59900;50.788;12.904;2023-03-14T02:38:29;95427.69;;;10.60;79.39
72038;BME280;59900;50.788;12.904;2023-03-14T02:40:56;95420.06;;;10.59;78.93
72038;BME280;59900;50.788;12.904;2023-03-14T02:43:21;95423.19;;;10.56;79.93
72038;BME280;59900;50.788;12.904;2023-03-14T02:45:48;95421.56;;;10.50;80.22
72038;BME280;59900;50.788;12.904;2023-03-14T02:48:26;95412.88;;;10.49;80.82
72038;BME280;59900;50.788;12.904;2023-03-14T02:50:54;95407.31;;;10.46;81.77
72038;BME280;59900;50.788;12.904;2023-03-14T02:53:24;95403.06;;;10.40;81.19
72038;BME280;59900;50.788;12.904;2023-03-14T02:55:50;95400.38;;;10.35;81.84
72038;BME280;59900;50.788;12.904;2023-03-14T02:58:16;95398.78;;;10.34;81.97
72038;BME280;59900;50.788;12.904;2023-03-14T03:00:42;95390.63;;;10.30;81.17
72038;BME280;59900;50.788;12.904;2023-03-14T03:03:07;95404.78;;;10.29;80.91
72038;BME280;59900;50.788;12.904;2023-03-14T03:05:33;95407.09;;;10.26;81.20
72038;BME280;59900;50.788;12.904;2023-03-14T03:07:58;95413.09;;;10.21;81.28
72038;BME280;59900;50.788;12.904;2023-03-14T03:10:23;95400.19;;;10.20;81.41
72038;BME280;59900;50.788;12.904;2023-03-14T03:12:48;95412.31;;;10.21;81.30
72038;BME280;59900;50.788;12.904;2023-03-14T03:15:14;95426.44;;;10.20;80.50
72038;BME280;59900;50.788;12.904;2023-03-14T03:17:39;95423.50;;;10.16;81.24
72038;BME280;59900;50.788;12.904;2023-03-14T03:20:04;95438.72;;;10.14;81.67
72038;BME280;59900;50.788;12.904;2023-03-14T03:22:31;95431.88;;;10.13;81.05
72038;BME280;59900;50.788;12.904;2023-03-14T03:24:57;95430.75;;;10.09;80.56
72038;BME280;59900;50.788;12.904;2023-03-14T03:27:22;95431.56;;;10.09;80.90
72038;BME280;59900;50.788;12.904;2023-03-14T03:29:48;95416.84;;;10.08;80.99
72038;BME280;59900;50.788;12.904;2023-03-14T03:32:13;95431.25;;;10.06;80.18
72038;BME280;59900;50.788;12.904;2023-03-14T03:34:38;95447.47;;;10.03;80.99
72038;BME280;59900;50.788;12.904;2023-03-14T03:37:03;95430.94;;;10.02;80.29
72038;BME280;59900;50.788;12.904;2023-03-14T03:39:29;95434.03;;;9.99;80.01
72038;BME280;59900;50.788;12.904;2023-03-14T03:41:54;95420.94;;;9.99;80.33
72038;BME280;59900;50.788;12.904;2023-03-14T03:44:19;95411.19;;;9.95;79.62
72038;BME280;59900;50.788;12.904;2023-03-14T03:46:44;95408.78;;;9.93;80.03
72038;BME280;59900;50.788;12.904;2023-03-14T03:49:10;95414.28;;;9.92;79.17
72038;BME280;59900;50.788;12.904;2023-03-14T03:51:35;95424.69;;;9.87;80.15
72038;BME280;59900;50.788;12.904;2023-03-14T03:54:00;95431.75;;;9.86;80.07
72038;BME280;59900;50.788;12.904;2023-03-14T03:56:25;95418.09;;;9.84;80.55
72038;BME280;59900;50.788;12.904;2023-03-14T03:58:51;95412.06;;;9.84;80.47
72038;BME280;59900;50.788;12.904;2023-03-14T04:01:16;95431.00;;;9.86;80.74
72038;BME280;59900;50.788;12.904;2023-03-14T04:03:41;95427.50;;;9.80;81.17
72038;BME280;59900;50.788;12.904;2023-03-14T04:06:11;95419.56;;;9.75;80.34
72038;BME280;59900;50.788;12.904;2023-03-14T04:08:37;95434.50;;;9.75;80.75
72038;BME280;59900;50.788;12.904;2023-03-14T04:11:03;95435.53;;;9.74;81.43
72038;BME280;59900;50.788;12.904;2023-03-14T04:13:29;95428.00;;;9.77;81.00
72038;BME280;59900;50.788;12.904;2023-03-14T04:15:55;95443.16;;;9.75;80.70
72038;BME280;59900;50.788;12.904;2023-03-14T04:18:21;95448.41;;;9.75;81.54
72038;BME280;59900;50.788;12.904;2023-03-14T04:20:52;95440.00;;;9.73;81.67
72038;BME280;59900;50.788;12.904;2023-03-14T04:23:17;95430.53;;;9.72;82.16
72038;BME280;59900;50.788;12.904;2023-03-14T04:25:42;95435.47;;;9.69;82.17
72038;BME280;59900;50.788;12.904;2023-03-14T04:28:07;95435.47;;;9.69;81.89
72038;BME280;59900;50.788;12.904;2023-03-14T04:30:33;95421.31;;;9.70;82.04
72038;BME280;59900;50.788;12.904;2023-03-14T04:32:58;95413.94;;;9.67;81.68
72038;BME280;59900;50.788;12.904;2023-03-14T04:35:23;95411.63;;;9.70;82.22
72038;BME280;59900;50.788;12.904;2023-03-14T04:37:48;95421.31;;;9.70;81.55
72038;BME280;59900;50.788;12.904;2023-03-14T04:40:14;95398.25;;;9.72;81.57
72038;BME280;59900;50.788;12.904;2023-03-14T04:42:40;95402.72;;;9.71;82.05
72038;BME280;59900;50.788;12.904;2023-03-14T04:45:06;95394.53;;;9.68;81.38
72038;BME280;59900;50.788;12.904;2023-03-14T04:47:32;95402.63;;;9.66;81.59
72038;BME280;59900;50.788;12.904;2023-03-14T04:49:57;95400.03;;;9.66;81.42
72038;BME280;59900;50.788;12.904;2023-03-14T04:52:22;95409.75;;;9.66;81.92
72038;BME280;59900;50.788;12.904;2023-03-14T04:54:47;95394.50;;;9.63;81.51
72038;BME280;59900;50.788;12.904;2023-03-14T04:57:13;95389.78;;;9.65;82.01
72038;BME280;59900;50.788;12.904;2023-03-14T04:59:38;95388.19;;;9.64;82.05
72038;BME280;59900;50.788;12.904;2023-03-14T05:02:03;95385.56;;;9.64;81.85
72038;BME280;59900;50.788;12.904;2023-03-14T05:04:29;95398.94;;;9.62;81.48
72038;BME280;59900;50.788;12.904;2023-03-14T05:06:57;95397.16;;;9.68;81.25
72038;BME280;59900;50.788;12.904;2023-03-14T05:09:23;95382.72;;;9.65;81.60
72038;BME280;59900;50.788;12.904;2023-03-14T05:11:48;95391.91;;;9.68;81.28
72038;BME280;59900;50.788;12.904;2023-03-14T05:14:13;95383.25;;;9.67;81.29
72038;BME280;59900;50.788;12.904;2023-03-14T05:16:38;95380.41;;;9.69;80.85
72038;BME280;59900;50.788;12.904;2023-03-14T05:19:03;95384.84;;;9.68;80.79
72038;BME280;59900;50.788;12.904;2023-03-14T05:21:29;95372.28;;;9.70;81.40
72038;BME280;59900;50.788;12.904;2023-03-14T05:23:54;95365.94;;;9.66;81.66
72038;BME280;59900;50.788;12.904;2023-03-14T05:26:19;95363.88;;;9.68;81.28
72038;BME280;59900;50.788;12.904;2023-03-14T05:28:44;95356.00;;;9.68;80.94
72038;BME280;59900;50.788;12.904;2023-03-14T05:31:10;95367.84;;;9.71;80.79
72038;BME280;59900;50.788;12.904;2023-03-14T05:33:35;95360.78;;;9.71;80.77
72038;BME280;59900;50.788;12.904;2023-03-14T05:36:01;95370.50;;;9.76;80.62
72038;BME280;59900;50.788;12.904;2023-03-14T05:38:26;95366.69;;;9.83;80.54
72038;BME280;59900;50.788;12.904;2023-03-14T05:40:51;95362.41;;;9.99;80.38
72038;BME280;59900;50.788;12.904;2023-03-14T05:43:16;95358.00;;;10.04;79.57
72038;BME280;59900;50.788;12.904;2023-03-14T05:45:42;95357.03;;;10.10;79.48
72038;BME280;59900;50.788;12.904;2023-03-14T05:48:08;95350.94;;;10.05;79.56
72038;BME280;59900;50.788;12.904;2023-03-14T05:50:33;95349.06;;;10.00;79.68
72038;BME280;59900;50.788;12.904;2023-03-14T05:52:58;95347.47;;;9.99;79.99
72038;BME280;59900;50.788;12.904;2023-03-14T05:55:23;95351.91;;;9.99;79.51
72038;BME280;59900;50.788;12.904;2023-03-14T05:57:49;95352.97;;;9.98;79.46
72038;BME280;59900;50.788;12.904;2023-03-14T06:00:14;95359.19;;;9.92;79.31
72038;BME280;59900;50.788;12.904;2023-03-14T06:02:39;95344.97;;;9.88;80.17
72038;BME280;59900;50.788;12.904;2023-03-14T06:05:05;95357.75;;;9.84;79.73
72038;BME280;59900;50.788;12.904;2023-03-14T06:07:31;95351.50;;;9.85;79.79
72038;BME280;59900;50.788;12.904;2023-03-14T06:09:56;95346.25;;;9.85;79.94
72038;BME280;59900;50.788;12.904;2023-03-14T06:12:23;95366.91;;;9.82;80.40
72038;BME280;59900;50.788;12.904;2023-03-14T06:14:49;95352.69;;;9.78;80.34
72038;BME280;59900;50.788;12.904;2023-03-14T06:17:14;95375.06;;;9.80;81.06
72038;BME280;59900;50.788;12.904;2023-03-14T06:19:39;95362.66;;;9.76;80.50
72038;BME280;59900;50.788;12.904;2023-03-14T06:22:04;95365.28;;;9.76;80.90
72038;BME280;59900;50.788;12.904;2023-03-14T06:24:30;95376.88;;;9.80;80.59
72038;BME280;59900;50.788;12.904;2023-03-14T06:26:55;95380.28;;;9.80;80.64
72038;BME280;59900;50.788;12.904;2023-03-14T06:29:20;95380.78;;;9.77;80.52
72038;BME280;59900;50.788;12.904;2023-03-14T06:31:45;95378.63;;;9.74;80.77
72038;BME280;59900;50.788;12.904;2023-03-14T06:34:11;95369.81;;;9.80;80.67
72038;BME280;59900;50.788;12.904;2023-03-14T06:36:36;95368.44;;;9.78;80.73
72038;BME280;59900;50.788;12.904;2023-03-14T06:39:02;95365.03;;;9.77;80.59
72038;BME280;59900;50.788;12.904;2023-03-14T06:41:28;95359.22;;;9.75;81.08
72038;BME280;59900;50.788;12.904;2023-03-14T06:43:53;95358.75;;;9.78;81.05
72038;BME280;59900;50.788;12.904;2023-03-14T06:46:18;95366.38;;;9.80;79.77
72038;BME280;59900;50.788;12.904;2023-03-14T06:48:43;95359.78;;;9.77;80.67
72038;BME280;59900;50.788;12.904;2023-03-14T06:51:09;95361.06;;;9.75;80.51
72038;BME280;59900;50.788;12.904;2023-03-14T06:53:34;95382.34;;;9.78;80.44
72038;BME280;59900;50.788;12.904;2023-03-14T06:56:00;95369.00;;;9.80;80.36
72038;BME280;59900;50.788;12.904;2023-03-14T06:58:25;95368.53;;;9.83;79.91
72038;BME280;59900;50.788;12.904;2023-03-14T07:00:52;95368.81;;;9.86;80.05
72038;BME280;59900;50.788;12.904;2023-03-14T07:03:18;95360.16;;;9.86;79.55
72038;BME280;59900;50.788;12.904;2023-03-14T07:05:43;95370.41;;;9.87;79.51
72038;BME280;59900;50.788;12.904;2023-03-14T07:08:08;95386.63;;;9.84;79.75
72038;BME280;59900;50.788;12.904;2023-03-14T07:10:34;95369.84;;;9.85;79.30
72038;BME280;59900;50.788;12.904;2023-03-14T07:12:59;95374.84;;;9.87;78.71
72038;BME280;59900;50.788;12.904;2023-03-14T07:15:24;95395.13;;;9.91;79.27
72038;BME280;59900;50.788;12.904;2023-03-14T07:17:50;95379.59;;;9.90;78.58
72038;BME280;59900;50.788;12.904;2023-03-14T07:20:15;95393.56;;;9.95;79.33
72038;BME280;59900;50.788;12.904;2023-03-14T07:22:41;95407.94;;;9.88;77.70
72038;BME280;59900;50.788;12.904;2023-03-14T07:25:06;95383.34;;;9.94;77.72
72038;BME280;59900;50.788;12.904;2023-03-14T07:27:34;95393.84;;;9.94;77.73
72038;BME280;59900;50.788;12.904;2023-03-14T07:29:59;95389.13;;;9.96;78.13
72038;BME280;59900;50.788;12.904;2023-03-14T07:32:24;95381.81;;;9.98;77.92
72038;BME280;59900;50.788;12.904;2023-03-14T07:34:50;95389.69;;;9.98;77.24
72038;BME280;59900;50.788;12.904;2023-03-14T07:37:15;95395.97;;;9.97;76.46
72038;BME280;59900;50.788;12.904;2023-03-14T07:39:41;95390.25;;;10.00;77.26
72038;BME280;59900;50.788;12.904;2023-03-14T07:42:06;95391.09;;;10.05;77.15
72038;BME280;59900;50.788;12.904;2023-03-14T07:44:32;95380.59;;;10.05;77.16
72038;BME280;59900;50.788;12.904;2023-03-14T07:46:57;95378.59;;;10.12;76.64
72038;BME280;59900;50.788;12.904;2023-03-14T07:49:23;95381.22;;;10.12;76.79
72038;BME280;59900;50.788;12.904;2023-03-14T07:51:48;95380.41;;;10.12;75.54
72038;BME280;59900;50.788;12.904;2023-03-14T07:54:14;95384.31;;;10.09;76.11
72038;BME280;59900;50.788;12.904;2023-03-14T07:56:39;95375.97;;;10.12;76.32
72038;BME280;59900;50.788;12.904;2023-03-14T07:59:04;95385.44;;;10.13;76.46
72038;BME280;59900;50.788;12.904;2023-03-14T08:01:30;95378.91;;;10.16;76.14
72038;BME280;59900;50.788;12.904;2023-03-14T08:03:55;95378.13;;;10.16;75.72
72038;BME280;59900;50.788;12.904;2023-03-14T08:06:20;95375.25;;;10.17;76.15
72038;BME280;59900;50.788;12.904;2023-03-14T08:08:45;95377.91;;;10.22;76.25
72038;BME280;59900;50.788;12.904;2023-03-14T08:11:11;95387.88;;;10.20;75.39
72038;BME280;59900;50.788;12.904;2023-03-14T08:13:37;95374.22;;;10.18;75.71
72038;BME280;59900;50.788;12.904;2023-03-14T08:16:03;95376.09;;;10.23;75.77
72038;BME280;59900;50.788;12.904;2023-03-14T08:18:28;95370.34;;;10.26;75.90
72038;BME280;59900;50.788;12.904;2023-03-14T08:20:53;95354.06;;;10.24;75.70
72038;BME280;59900;50.788;12.904;2023-03-14T08:23:19;95350.19;;;10.31;75.31
72038;BME280;59900;50.788;12.904;2023-03-14T08:25:44;95350.44;;;10.30;75.27
72038;BME280;59900;50.788;12.904;2023-03-14T08:28:09;95347.56;;;10.31;74.63
72038;BME280;59900;50.788;12.904;2023-03-14T08:30:35;95349.97;;;10.33;74.57
72038;BME280;59900;50.788;12.904;2023-03-14T08:33:00;95344.50;;;10.39;74.62
72038;BME280;59900;50.788;12.904;2023-03-14T08:35:26;95335.34;;;10.42;73.76
72038;BME280;59900;50.788;12.904;2023-03-14T08:37:51;95343.56;;;10.50;73.78
72038;BME280;59900;50.788;12.904;2023-03-14T08:40:17;95329.38;;;10.51;73.20
72038;BME280;59900;50.788;12.904;2023-03-14T08:42:44;95336.03;;;10.59;73.57
72038;BME280;59900;50.788;12.904;2023-03-14T08:45:12;95340.78;;;10.62;73.51
72038;BME280;59900;50.788;12.904;2023-03-14T08:47:38;95355.16;;;10.54;72.76
72038;BME280;59900;50.788;12.904;2023-03-14T08:50:04;95362.50;;;10.52;72.70
72038;BME280;59900;50.788;12.904;2023-03-14T08:52:30;95360.69;;;10.58;73.57
72038;BME280;59900;50.788;12.904;2023-03-14T08:54:56;95369.41;;;10.63;73.83
72038;BME280;59900;50.788;12.904;2023-03-14T08:57:21;95360.75;;;10.63;73.55
72038;BME280;59900;50.788;12.904;2023-03-14T08:59:47;95369.91;;;10.60;73.48
72038;BME280;59900;50.788;12.904;2023-03-14T09:02:12;95373.84;;;10.58;73.77
72038;BME280;59900;50.788;12.904;2023-03-14T09:04:38;95376.66;;;10.51;73.39
72038;BME280;59900;50.788;12.904;2023-03-14T09:07:03;95384.00;;;10.49;73.62
72038;BME280;59900;50.788;12.904;2023-03-14T09:09:28;95386.09;;;10.47;73.51
72038;BME280;59900;50.788;12.904;2023-03-14T09:11:55;95391.03;;;10.44;73.71
72038;BME280;59900;50.788;12.904;2023-03-14T09:14:20;95398.84;;;10.39;74.04
72038;BME280;59900;50.788;12.904;2023-03-14T09:16:45;95388.28;;;10.34;73.57
72038;BME280;59900;50.788;12.904;2023-03-14T09:19:10;95401.41;;;10.34;74.07
72038;BME280;59900;50.788;12.904;2023-03-14T09:21:36;95409.84;;;10.36;74.11
72038;BME280;59900;50.788;12.904;2023-03-14T09:24:02;95394.59;;;10.33;73.86
72038;BME280;59900;50.788;12.904;2023-03-14T09:26:27;95390.69;;;10.35;73.42
72038;BME280;59900;50.788;12.904;2023-03-14T09:28:53;95395.94;;;10.35;73.67
72038;BME280;59900;50.788;12.904;2023-03-14T09:31:18;95390.41;;;10.37;73.44
72038;BME280;59900;50.788;12.904;2023-03-14T09:33:43;95406.47;;;10.40;73.53
72038;BME280;59900;50.788;12.904;2023-03-14T09:36:09;95404.09;;;10.39;73.10
72038;BME280;59900;50.788;12.904;2023-03-14T09:38:35;95398.56;;;10.35;73.67
72038;BME280;59900;50.788;12.904;2023-03-14T09:41:01;95408.78;;;10.37;73.50
72038;BME280;59900;50.788;12.904;2023-03-14T09:43:32;95419.28;;;10.37;73.59
72038;BME280;59900;50.788;12.904;2023-03-14T09:46:01;95393.31;;;10.35;73.40
72038;BME280;59900;50.788;12.904;2023-03-14T09:48:30;95397.50;;;10.36;73.07
72038;BME280;59900;50.788;12.904;2023-03-14T09:51:00;95397.25;;;10.38;73.42
72038;BME280;59900;50.788;12.904;2023-03-14T09:53:37;95398.06;;;10.38;73.03
72038;BME280;59900;50.788;12.904;2023-03-14T09:56:02;95409.09;;;10.40;73.27
72038;BME280;59900;50.788;12.904;2023-03-14T09:58:29;95428.50;;;10.39;73.28
72038;BME280;59900;50.788;12.904;2023-03-14T10:00:56;95402.25;;;10.39;72.90
72038;BME280;59900;50.788;12.904;2023-03-14T10:03:32;95399.69;;;10.44;73.18
72038;BME280;59900;50.788;12.904;2023-03-14T10:05:58;95393.97;;;10.47;73.25
72038;BME280;59900;50.788;12.904;2023-03-14T10:08:24;95407.56;;;10.44;72.25
72038;BME280;59900;50.788;12.904;2023-03-14T10:10:50;95409.72;;;10.47;72.15
72038;BME280;59900;50.788;12.904;2023-03-14T10:13:26;95385.81;;;10.49;71.71
72038;BME280;59900;50.788;12.904;2023-03-14T10:15:55;95400.25;;;10.46;71.79
72038;BME280;59900;50.788;12.904;2023-03-14T10:18:22;95401.38;;;10.55;71.77
72038;BME280;59900;50.788;12.904;2023-03-14T10:20:49;95403.03;;;10.61;71.57
72038;BME280;59900;50.788;12.904;2023-03-14T10:25:42;95391.53;;;10.67;70.74
72038;BME280;59900;50.788;12.904;2023-03-14T10:28:41;95400.25;;;10.73;71.36
72038;BME280;59900;50.788;12.904;2023-03-14T10:31:07;95387.41;;;10.77;70.24
72038;BME280;59900;50.788;12.904;2023-03-14T10:33:35;95379.84;;;10.80;69.72
72038;BME280;59900;50.788;12.904;2023-03-14T10:36:14;95392.00;;;10.91;69.61
72038;BME280;59900;50.788;12.904;2023-03-14T10:38:42;95378.41;;;10.99;69.08
72038;BME280;59900;50.788;12.904;2023-03-14T10:41:17;95404.28;;;11.12;68.39
72038;BME280;59900;50.788;12.904;2023-03-14T10:43:43;95399.06;;;11.17;68.74
72038;BME280;59900;50.788;12.904;2023-03-14T10:46:13;95400.63;;;11.18;68.44
72038;BME280;59900;50.788;12.904;2023-03-14T10:48:39;95402.22;;;11.19;68.99
72038;BME280;59900;50.788;12.904;2023-03-14T10:51:10;95390.41;;;11.22;69.51
72038;BME280;59900;50.788;12.904;2023-03-14T10:53:41;95405.34;;;11.16;68.79
72038;BME280;59900;50.788;12.904;2023-03-14T10:56:10;95406.94;;;11.17;68.78
72038;BME280;59900;50.788;12.904;2023-03-14T10:58:41;95387.13;;;11.05;68.66
72038;BME280;59900;50.788;12.904;2023-03-14T11:03:40;95405.22;;;11.01;68.01
72038;BME280;59900;50.788;12.904;2023-03-14T11:06:21;95401.78;;;11.01;68.57
72038;BME280;59900;50.788;12.904;2023-03-14T11:08:51;95376.88;;;11.03;68.42
72038;BME280;59900;50.788;12.904;2023-03-14T11:11:27;95398.97;;;11.07;68.32
72038;BME280;59900;50.788;12.904;2023-03-14T11:14:08;95400.59;;;11.13;68.76
72038;BME280;59900;50.788;12.904;2023-03-14T11:22:48;95399.72;;;11.35;68.55
72038;BME280;59900;50.788;12.904;2023-03-14T11:25:24;95402.34;;;11.35;68.54
72038;BME280;59900;50.788;12.904;2023-03-14T11:31:03;95401.25;;;11.31;69.10
72038;BME280;59900;50.788;12.904;2023-03-14T11:33:37;95441.16;;;11.22;69.38
72038;BME280;59900;50.788;12.904;2023-03-14T11:36:06;95405.66;;;11.20;70.12
72038;BME280;59900;50.788;12.904;2023-03-14T11:38:46;95420.31;;;11.16;70.20
72038;BME280;59900;50.788;12.904;2023-03-14T11:41:37;95387.72;;;11.12;69.43
72038;BME280;59900;50.788;12.904;2023-03-14T11:44:19;95415.78;;;11.06;70.01
72038;BME280;59900;50.788;12.904;2023-03-14T11:47:02;95406.34;;;11.10;69.90
72038;BME280;59900;50.788;12.904;2023-03-14T11:49:38;95409.97;;;11.04;69.85
72038;BME280;59900;50.788;12.904;2023-03-14T11:52:10;95403.66;;;11.00;70.50
72038;BME280;59900;50.788;12.904;2023-03-14T11:54:45;95416.22;;;10.98;70.75
72038;BME280;59900;50.788;12.904;2023-03-14T11:57:17;95405.72;;;10.98;70.60
72038;BME280;59900;50.788;12.904;2023-03-14T12:00:24;95405.47;;;11.00;70.92
72038;BME280;59900;50.788;12.904;2023-03-14T12:02:44;95388.38;;;10.97;71.88
72038;BME280;59900;50.788;12.904;2023-03-14T12:10:29;95397.06;;;10.98;72.72
72038;BME280;59900;50.788;12.904;2023-03-14T12:12:54;95385.31;;;11.10;72.88
72038;BME280;59900;50.788;12.904;2023-03-14T12:15:21;95379.03;;;11.11;72.58
72038;BME280;59900;50.788;12.904;2023-03-14T12:17:53;95395.03;;;11.10;72.63
72038;BME280;59900;50.788;12.904;2023-03-14T12:20:21;95382.16;;;11.08;72.75
72038;BME280;59900;50.788;12.904;2023-03-14T12:22:53;95389.59;;;11.21;73.58
72038;BME280;59900;50.788;12.904;2023-03-14T12:25:21;95386.25;;;11.31;72.43
72038;BME280;59900;50.788;12.904;2023-03-14T12:35:48;95373.75;;;11.48;71.20
72038;BME280;59900;50.788;12.904;2023-03-14T12:38:31;95384.84;;;11.55;70.42
72038;BME280;59900;50.788;12.904;2023-03-14T12:43:47;95378.50;;;11.51;70.18
72038;BME280;59900;50.788;12.904;2023-03-14T12:46:25;95371.59;;;11.40;70.60
72038;BME280;59900;50.788;12.904;2023-03-14T12:48:56;95372.63;;;11.39;70.37
72038;BME280;59900;50.788;12.904;2023-03-14T12:57:21;95372.41;;;11.41;70.64
72038;BME280;59900;50.788;12.904;2023-03-14T12:59:52;95360.50;;;11.33;69.44
72038;BME280;59900;50.788;12.904;2023-03-14T13:02:37;95367.53;;;11.22;70.16
72038;BME280;59900;50.788;12.904;2023-03-14T13:05:11;95370.94;;;11.18;70.65
72038;BME280;59900;50.788;12.904;2023-03-14T13:10:23;95352.84;;;11.27;70.66
72038;BME280;59900;50.788;12.904;2023-03-14T13:15:29;95338.75;;;11.43;70.23
72038;BME280;59900;50.788;12.904;2023-03-14T13:17:59;95335.06;;;11.39;70.15
72038;BME280;59900;50.788;12.904;2023-03-14T13:20:35;95337.72;;;11.44;70.35
72038;BME280;59900;50.788;12.904;2023-03-14T13:23:01;95339.84;;;11.52;70.10
72038;BME280;59900;50.788;12.904;2023-03-14T13:25:34;95332.22;;;11.50;69.54
72038;BME280;59900;50.788;12.904;2023-03-14T13:28:00;95328.53;;;11.51;69.33
72038;BME280;59900;50.788;12.904;2023-03-14T13:30:35;95319.38;;;11.59;69.81
72038;BME280;59900;50.788;12.904;2023-03-14T13:33:03;95326.31;;;11.70;69.80
72038;BME280;59900;50.788;12.904;2023-03-14T13:35:38;95318.88;;;11.67;69.52
72038;BME280;59900;50.788;12.904;2023-03-14T13:38:04;95313.72;;;11.87;69.29
72038;BME280;59900;50.788;12.904;2023-03-14T13:40:34;95317.75;;;12.00;68.55